createdAt,value
2022-08-18T00:01:16.836Z,21.74
2022-08-18T00:06:22.035Z,21.67
2022-08-18T00:11:26.695Z,21.48
2022-08-18T00:16:30.659Z,21.40
2022-08-18T00:21:35.249Z,21.24
2022-08-18T00:26:38.784Z,21.15
2022-08-18T00:31:42.151Z,21.06
2022-08-18T00:36:45.678Z,20.99
2022-08-18T00:41:49.117Z,20.78
2022-08-18T00:46:52.992Z,20.83
2022-08-18T00:51:58.113Z,20.82
2022-08-18T00:57:04.906Z,20.84
2022-08-18T01:02:12.652Z,20.83
2022-08-18T01:07:21.926Z,20.82
2022-08-18T01:12:45.949Z,20.85
2022-08-18T01:18:08.698Z,21.01
2022-08-18T01:23:16.158Z,21.27
2022-08-18T01:28:20.937Z,21.40
2022-08-18T01:33:30.304Z,21.62
2022-08-18T01:38:33.851Z,21.61
2022-08-18T01:43:37.589Z,21.62
2022-08-18T01:48:40.834Z,21.74
2022-08-18T01:53:44.813Z,22.03
2022-08-18T01:58:48.817Z,22.35
2022-08-18T02:04:06.198Z,22.56
2022-08-18T02:09:24.194Z,22.68
2022-08-18T02:14:27.779Z,22.50
2022-08-18T02:19:43.610Z,22.91
2022-08-18T02:24:47.968Z,23.28
2022-08-18T02:29:51.802Z,23.43
2022-08-18T02:34:55.592Z,23.67
2022-08-18T02:39:59.346Z,23.99
2022-08-18T02:45:02.464Z,23.95
2022-08-18T02:50:07.400Z,23.87
2022-08-18T02:55:14.697Z,23.69
2022-08-18T03:00:19.320Z,23.71
2022-08-18T03:05:22.847Z,23.76
2022-08-18T03:10:31.520Z,23.73
2022-08-18T03:15:37.684Z,23.57
2022-08-18T03:20:44.398Z,23.36
2022-08-18T03:25:49.406Z,23.28
2022-08-18T03:30:53.470Z,23.12
2022-08-18T03:35:56.707Z,22.70
2022-08-18T03:41:01.005Z,22.52
2022-08-18T03:46:07.154Z,22.42
2022-08-18T03:51:17.251Z,22.42
2022-08-18T03:56:25.114Z,22.26
2022-08-18T04:01:33.070Z,21.97
2022-08-18T04:06:46.243Z,21.58
2022-08-18T04:11:50.278Z,21.20
2022-08-18T04:16:54.368Z,21.11
2022-08-18T04:21:58.771Z,21.11
2022-08-18T04:27:05.192Z,21.17
2022-08-18T04:32:08.344Z,21.93
2022-08-18T04:37:11.548Z,22.61
2022-08-18T04:42:15.490Z,22.63
2022-08-18T04:47:18.838Z,22.50
2022-08-18T04:52:41.997Z,22.52
2022-08-18T04:57:45.602Z,22.61
2022-08-18T05:02:49.903Z,22.70
2022-08-18T05:07:53.273Z,22.78
2022-08-18T05:12:58.002Z,22.98
2022-08-18T05:18:01.499Z,23.34
2022-08-18T05:23:04.952Z,23.74
2022-08-18T05:28:10.098Z,24.29
2022-08-18T05:33:14.109Z,25.06
2022-08-18T05:38:25.650Z,25.71
2022-08-18T05:43:29.285Z,26.07
2022-08-18T05:48:33.484Z,26.41
2022-08-18T05:53:56.228Z,26.73
2022-08-18T05:59:02.302Z,27.15
2022-08-18T06:04:14.310Z,27.57
2022-08-18T06:09:24.691Z,27.93
2022-08-18T06:14:28.029Z,28.30
2022-08-18T06:19:36.918Z,28.69
2022-08-18T06:24:57.336Z,29.84
2022-08-18T06:30:11.113Z,31.44
2022-08-18T06:35:34.677Z,32.31
2022-08-18T06:40:38.316Z,32.96
2022-08-18T06:45:46.291Z,33.77
2022-08-18T06:50:54.004Z,34.33
2022-08-18T06:55:58.109Z,34.77
2022-08-18T07:01:11.497Z,35.47
2022-08-18T07:06:22.847Z,35.68
2022-08-18T07:11:28.939Z,36.13
2022-08-18T07:16:57.625Z,36.63
2022-08-18T07:22:10.654Z,36.57
2022-08-18T07:27:21.367Z,36.62
2022-08-18T07:32:30.796Z,36.59
2022-08-18T07:44:13.802Z,37.46
2022-08-18T07:49:25.414Z,37.68
2022-08-18T08:01:59.674Z,37.86
2022-08-18T08:07:27.711Z,37.86
2022-08-18T08:12:40.773Z,38.08
2022-08-18T08:18:25.904Z,38.42
2022-08-18T08:24:34.356Z,38.99
2022-08-18T08:30:36.562Z,39.25
2022-08-18T08:36:05.057Z,38.48
2022-08-18T08:41:27.016Z,38.76
2022-08-18T08:46:37.461Z,38.51
2022-08-18T08:51:58.218Z,36.62
2022-08-18T08:57:11.051Z,36.53
2022-08-18T09:02:52.687Z,36.83
2022-08-18T09:08:29.121Z,37.04
2022-08-18T09:14:11.093Z,37.86
2022-08-18T09:19:26.702Z,38.14
2022-08-18T09:24:53.305Z,39.24
2022-08-18T09:30:02.839Z,38.92
2022-08-18T09:35:45.457Z,38.71
2022-08-18T09:41:26.845Z,38.77
2022-08-18T09:46:57.760Z,38.46
2022-08-18T09:52:23.943Z,38.36
2022-08-18T09:57:42.234Z,38.02
2022-08-18T10:08:35.456Z,38.19
2022-08-18T10:14:26.895Z,38.50
2022-08-18T10:20:05.126Z,38.84
2022-08-18T10:25:23.091Z,38.55
2022-08-18T10:36:04.677Z,38.44
2022-08-18T10:41:23.900Z,38.88
2022-08-18T10:46:46.613Z,38.71
2022-08-18T10:52:13.363Z,38.97
2022-08-18T11:09:12.210Z,39.09
2022-08-18T11:14:57.590Z,39.53
2022-08-18T11:20:03.253Z,39.17
2022-08-18T11:31:17.705Z,39.48
2022-08-18T11:36:31.165Z,39.55
2022-08-18T11:41:55.777Z,39.75
2022-08-18T11:47:17.255Z,39.32
2022-08-18T11:52:32.988Z,38.57
2022-08-18T11:57:52.956Z,39.35
2022-08-18T12:03:06.090Z,39.43
2022-08-18T12:08:58.126Z,39.22
2022-08-18T12:14:30.420Z,38.66
2022-08-18T12:19:34.733Z,38.28
2022-08-18T12:24:39.290Z,38.80
2022-08-18T12:29:44.368Z,39.59
2022-08-18T12:34:48.677Z,39.19
2022-08-18T12:40:00.166Z,39.59
2022-08-18T12:45:03.981Z,38.96
2022-08-18T12:50:09.173Z,39.11
2022-08-18T12:55:21.433Z,38.58
2022-08-18T13:05:54.913Z,38.52
2022-08-18T13:11:20.884Z,37.46
2022-08-18T13:16:39.102Z,38.48
2022-08-18T13:21:53.374Z,38.38
2022-08-18T13:27:01.038Z,38.29
2022-08-18T13:32:09.262Z,37.15
2022-08-18T13:37:12.681Z,38.25
2022-08-18T13:42:26.731Z,37.86
2022-08-18T13:47:38.174Z,37.61
2022-08-18T13:52:44.638Z,37.39
2022-08-18T13:57:53.549Z,37.66
2022-08-18T14:02:59.199Z,37.31
2022-08-18T14:08:03.785Z,37.03
2022-08-18T14:13:11.966Z,36.92
2022-08-18T14:18:30.873Z,36.12
2022-08-18T14:23:55.890Z,36.68
2022-08-18T14:29:01.219Z,37.57
2022-08-18T14:34:10.829Z,36.63
2022-08-18T14:39:14.924Z,37.14
2022-08-18T14:44:31.697Z,36.70
2022-08-18T14:49:47.860Z,36.48
2022-08-18T14:54:52.479Z,37.02
2022-08-18T14:59:58.741Z,36.63
2022-08-18T15:05:02.036Z,35.70
2022-08-18T15:10:28.031Z,36.02
2022-08-18T15:15:42.439Z,36.18
2022-08-18T15:21:19.671Z,36.43
2022-08-18T15:26:38.899Z,35.79
2022-08-18T15:31:51.029Z,35.64
2022-08-18T15:36:56.121Z,35.82
2022-08-18T15:41:59.946Z,35.15
2022-08-18T15:47:09.328Z,35.52
2022-08-18T15:52:13.696Z,34.95
2022-08-18T15:57:39.740Z,34.94
2022-08-18T16:02:51.211Z,34.69
2022-08-18T16:07:56.602Z,33.84
2022-08-18T16:13:04.896Z,33.85
2022-08-18T16:18:09.755Z,33.79
2022-08-18T16:23:14.492Z,33.83
2022-08-18T16:28:17.774Z,33.72
2022-08-18T16:33:22.527Z,33.74
2022-08-18T16:38:26.195Z,33.34
2022-08-18T16:43:30.652Z,33.38
2022-08-18T16:48:34.773Z,33.08
2022-08-18T16:53:40.412Z,32.77
2022-08-18T16:59:05.311Z,32.61
2022-08-18T17:04:14.687Z,32.49
2022-08-18T17:09:24.252Z,32.41
2022-08-18T17:14:30.465Z,32.15
2022-08-18T17:19:35.087Z,31.71
2022-08-18T17:24:42.692Z,31.53
2022-08-18T17:30:05.099Z,31.30
2022-08-18T17:35:14.305Z,31.18
2022-08-18T17:40:28.687Z,30.99
2022-08-18T17:45:37.029Z,30.78
2022-08-18T17:51:05.510Z,30.59
2022-08-18T17:56:21.366Z,30.32
2022-08-18T18:01:26.878Z,29.98
2022-08-18T18:06:37.865Z,29.79
2022-08-18T18:11:46.201Z,29.23
2022-08-18T18:17:01.872Z,28.96
2022-08-18T18:22:18.271Z,28.79
2022-08-18T18:27:33.030Z,28.43
2022-08-18T18:32:59.214Z,28.19
2022-08-18T18:38:07.269Z,28.02
2022-08-18T18:43:39.487Z,27.72
2022-08-18T18:48:57.242Z,27.55
2022-08-18T18:54:24.285Z,27.55
2022-08-18T18:59:51.946Z,27.28
2022-08-18T19:05:34.447Z,27.09
2022-08-18T19:11:00.920Z,27.00
2022-08-18T19:16:23.458Z,27.08
2022-08-18T19:22:05.536Z,27.10
2022-08-18T19:26:58.279Z,27.00
2022-08-18T19:32:20.925Z,27.01
2022-08-18T19:37:47.288Z,26.83
2022-08-18T19:43:19.675Z,26.63
2022-08-18T19:48:34.297Z,26.49
2022-08-18T19:53:58.708Z,26.65
2022-08-18T19:59:18.653Z,26.77
2022-08-18T20:04:43.777Z,26.63
2022-08-18T20:09:56.058Z,26.60
2022-08-18T20:15:15.854Z,26.67
2022-08-18T20:20:22.078Z,26.62
2022-08-18T20:25:25.089Z,26.58
2022-08-18T20:30:30.424Z,26.43
2022-08-18T20:35:41.183Z,26.30
2022-08-18T20:40:51.644Z,26.19
2022-08-18T20:46:32.585Z,26.10
2022-08-18T20:51:52.556Z,26.02
2022-08-18T20:57:02.531Z,25.97
2022-08-18T21:02:24.389Z,26.11
2022-08-18T21:07:38.108Z,26.02
2022-08-18T21:12:59.165Z,25.95
2022-08-18T21:18:04.571Z,25.72
2022-08-18T21:23:12.007Z,25.81
2022-08-18T21:28:15.764Z,26.01
2022-08-18T21:33:21.112Z,26.14
2022-08-18T21:38:27.828Z,26.16
2022-08-18T21:43:51.357Z,26.11
2022-08-18T21:48:57.748Z,26.02
2022-08-18T21:54:01.260Z,25.99
2022-08-18T21:59:17.903Z,25.97
2022-08-18T22:04:36.234Z,25.99
2022-08-18T22:10:19.413Z,26.06
2022-08-18T22:15:27.051Z,26.20
2022-08-18T22:20:42.648Z,26.53
2022-08-18T22:25:45.852Z,26.45
2022-08-18T22:30:49.325Z,26.52
2022-08-18T22:35:56.890Z,26.41
2022-08-18T22:41:00.932Z,26.23
2022-08-18T22:46:04.497Z,26.55
2022-08-18T22:51:08.868Z,26.54
2022-08-18T22:56:13.452Z,26.38
2022-08-18T23:01:21.047Z,26.40
2022-08-18T23:06:28.761Z,26.60
2022-08-18T23:11:32.656Z,26.79
2022-08-18T23:16:36.321Z,26.87
2022-08-18T23:21:40.301Z,27.00
2022-08-18T23:26:44.029Z,27.09
2022-08-18T23:31:48.673Z,27.08
2022-08-18T23:36:56.156Z,26.96
2022-08-18T23:42:00.692Z,27.07
2022-08-18T23:47:04.475Z,27.36
2022-08-18T23:52:09.713Z,27.58
2022-08-18T23:57:13.219Z,27.79
